Time;durP1;ratioP1;P1;durP2;ratioP2;P2;SDS_P1;SDS_P2;PMS_P1;PMS_P2;Temp;Humidity;BMP_temperature;BMP_pressure;BME280_temperature;BME280_humidity;BME280_pressure;Samples;Min_cycle;Max_cycle;Signal;HPM_P1;HPM_P2
2021/11/05 00:00:19;;;;;;;7.75;2.53;;;;;;;;;;5035756;28;20037;-72
2021/11/05 00:02:45;;;;;;;5.10;2.63;;;;;;;;;;5038993;28;21636;-72
2021/11/05 00:05:11;;;;;;;4.97;2.55;;;;;;;;;;5059992;28;20500;-72
2021/11/05 00:07:37;;;;;;;12.05;3.05;;;;;;;;;;5041291;28;20091;-72
2021/11/05 00:10:04;;;;;;;5.30;2.55;;;;;;;;;;5067242;28;20120;-72
2021/11/05 00:12:31;;;;;;;6.75;3.00;;;;;;;;;;5040091;28;20053;-72
2021/11/05 00:14:57;;;;;;;5.30;2.30;;;;;;;;;;5045641;28;20111;-72
2021/11/05 00:17:23;;;;;;;5.03;2.55;;;;;;;;;;5043993;28;20037;-72
2021/11/05 00:19:49;;;;;;;9.48;3.25;;;;;;;;;;5040647;28;20106;-72
2021/11/05 00:22:15;;;;;;;6.97;3.33;;;;;;;;;;5034545;28;20102;-72
2021/11/05 00:24:42;;;;;;;7.38;3.30;;;;;;;;;;5035746;28;20033;-72
2021/11/05 00:27:08;;;;;;;23.20;4.00;;;;;;;;;;5040067;28;20062;-72
2021/11/05 00:29:34;;;;;;;54.90;3.80;;;;;;;;;;5045841;28;20404;-72
2021/11/05 00:32:01;;;;;;;14.60;2.88;;;;;;;;;;5045077;28;20115;-72
2021/11/05 00:34:27;;;;;;;18.05;2.28;;;;;;;;;;5040212;28;20168;-72
2021/11/05 00:36:53;;;;;;;6.60;2.20;;;;;;;;;;5040660;28;20045;-72
2021/11/05 00:39:19;;;;;;;4.97;2.10;;;;;;;;;;5037959;28;20037;-72
2021/11/05 00:41:45;;;;;;;5.50;2.08;;;;;;;;;;5044381;28;20036;-72
2021/11/05 00:44:11;;;;;;;5.03;2.10;;;;;;;;;;5046787;28;20091;-72
2021/11/05 00:46:37;;;;;;;6.68;2.20;;;;;;;;;;5044276;28;20040;-72
2021/11/05 00:49:03;;;;;;;7.68;2.72;;;;;;;;;;5046681;28;20441;-72
2021/11/05 00:51:30;;;;;;;4.97;1.25;;;;;;;;;;5044033;28;20074;-72
2021/11/05 00:53:57;;;;;;;14.05;2.08;;;;;;;;;;5047135;28;20630;-72
2021/11/05 00:56:23;;;;;;;14.40;2.88;;;;;;;;;;5037480;28;20041;-72
2021/11/05 00:58:49;;;;;;;10.68;1.80;;;;;;;;;;5042484;28;20045;-72
2021/11/05 01:01:15;;;;;;;10.95;1.50;;;;;;;;;;5042291;28;20076;-72
2021/11/05 01:03:41;;;;;;;14.93;2.47;;;;;;;;;;5044621;28;20045;-72
2021/11/05 01:06:07;;;;;;;14.07;2.05;;;;;;;;;;5044003;28;20052;-72
2021/11/05 01:08:34;;;;;;;8.85;1.67;;;;;;;;;;5073383;28;20079;-72
2021/11/05 01:11:00;;;;;;;7.35;1.67;;;;;;;;;;5038600;28;20041;-72
2021/11/05 01:13:26;;;;;;;11.80;1.60;;;;;;;;;;5047533;28;20037;-72
2021/11/05 01:15:52;;;;;;;9.52;2.03;;;;;;;;;;5043705;28;20128;-72
2021/11/05 01:18:21;;;;;;;9.63;1.30;;;;;;;;;;5041712;28;20053;-72
2021/11/05 01:20:47;;;;;;;8.50;1.42;;;;;;;;;;5038182;28;20107;-72
2021/11/05 01:23:13;;;;;;;12.05;1.60;;;;;;;;;;5042027;28;20119;-72
2021/11/05 01:25:40;;;;;;;17.55;1.33;;;;;;;;;;5040711;28;20126;-72
2021/11/05 01:28:06;;;;;;;21.85;1.80;;;;;;;;;;5037904;28;20198;-72
2021/11/05 01:30:32;;;;;;;12.55;1.60;;;;;;;;;;5047325;28;20044;-72
2021/11/05 01:33:06;;;;;;;14.20;1.73;;;;;;;;;;5040249;28;20261;-72
2021/11/05 01:35:33;;;;;;;14.45;1.75;;;;;;;;;;5043785;28;20044;-72
2021/11/05 01:37:59;;;;;;;12.57;2.50;;;;;;;;;;5071310;28;20103;-72
2021/11/05 01:40:25;;;;;;;12.73;2.17;;;;;;;;;;5039998;28;20641;-72
2021/11/05 01:42:51;;;;;;;15.27;1.88;;;;;;;;;;5053931;28;20041;-72
2021/11/05 01:45:19;;;;;;;9.73;2.00;;;;;;;;;;5034848;28;20041;-72
2021/11/05 01:47:45;;;;;;;9.00;1.88;;;;;;;;;;5051437;28;20048;-72
2021/11/05 01:50:13;;;;;;;11.90;2.25;;;;;;;;;;5068180;28;20040;-72
2021/11/05 01:52:39;;;;;;;10.40;1.88;;;;;;;;;;5040137;28;20044;-72
2021/11/05 01:55:06;;;;;;;21.15;3.13;;;;;;;;;;5043219;28;20059;-72
2021/11/05 01:57:32;;;;;;;12.10;1.80;;;;;;;;;;5066930;28;20525;-72
2021/11/05 01:59:59;;;;;;;11.93;1.67;;;;;;;;;;5039508;28;20101;-72
2021/11/05 02:02:25;;;;;;;14.55;1.80;;;;;;;;;;5040260;28;20131;-72
2021/11/05 02:04:51;;;;;;;19.95;2.35;;;;;;;;;;5039649;28;20061;-72
2021/11/05 02:07:17;;;;;;;9.73;1.75;;;;;;;;;;5037593;28;20404;-72
2021/11/05 02:09:45;;;;;;;23.83;2.58;;;;;;;;;;5040336;28;20041;-72
2021/11/05 02:12:11;;;;;;;25.33;2.15;;;;;;;;;;5036980;28;20045;-72
2021/11/05 02:14:38;;;;;;;21.63;2.17;;;;;;;;;;5034622;28;20049;-72
2021/11/05 02:17:05;;;;;;;19.25;2.40;;;;;;;;;;5043429;28;20049;-72
2021/11/05 02:19:32;;;;;;;18.60;2.10;;;;;;;;;;5039663;28;20051;-72
2021/11/05 02:21:59;;;;;;;22.35;2.00;;;;;;;;;;5022655;28;20489;-72
2021/11/05 02:24:26;;;;;;;12.38;1.95;;;;;;;;;;5042218;28;20076;-72
2021/11/05 02:26:53;;;;;;;11.85;2.15;;;;;;;;;;5062673;28;20041;-72
2021/11/05 02:29:21;;;;;;;13.63;1.75;;;;;;;;;;5038258;28;20038;-72
2021/11/05 02:31:47;;;;;;;17.25;2.35;;;;;;;;;;5039951;28;20126;-72
2021/11/05 02:34:14;;;;;;;17.40;1.80;;;;;;;;;;5040206;28;20132;-72
2021/11/05 02:36:40;;;;;;;16.70;1.80;;;;;;;;;;5039297;28;20058;-73
2021/11/05 02:39:08;;;;;;;19.02;1.80;;;;;;;;;;5038046;28;20090;-72
2021/11/05 02:41:35;;;;;;;7.78;1.80;;;;;;;;;;5035592;28;20060;-72
2021/11/05 02:44:01;;;;;;;13.45;1.40;;;;;;;;;;5041267;28;20048;-72
2021/11/05 02:46:27;;;;;;;9.23;1.20;;;;;;;;;;5044132;28;20076;-72
2021/11/05 02:48:56;;;;;;;17.60;2.20;;;;;;;;;;5035728;28;20033;-72
2021/11/05 02:51:23;;;;;;;12.45;1.45;;;;;;;;;;5036582;28;20087;-72
2021/11/05 02:53:49;;;;;;;14.85;2.38;;;;;;;;;;5037277;28;20127;-72
2021/11/05 02:56:15;;;;;;;12.25;2.13;;;;;;;;;;5047561;28;20047;-72
2021/11/05 02:58:42;;;;;;;17.20;2.42;;;;;;;;;;5071920;28;20486;-73
2021/11/05 03:01:08;;;;;;;12.68;1.63;;;;;;;;;;5044531;28;20454;-73
2021/11/05 03:03:35;;;;;;;32.15;4.18;;;;;;;;;;5044504;28;20706;-72
2021/11/05 03:06:01;;;;;;;11.43;1.88;;;;;;;;;;5045877;28;20489;-72
2021/11/05 03:08:27;;;;;;;14.43;1.95;;;;;;;;;;5024465;28;20128;-72
2021/11/05 03:10:54;;;;;;;12.93;1.33;;;;;;;;;;5040992;28;20045;-72
2021/11/05 03:13:20;;;;;;;14.77;1.58;;;;;;;;;;5047654;28;20484;-72
2021/11/05 03:15:46;;;;;;;19.80;1.92;;;;;;;;;;5048815;28;20041;-72
2021/11/05 03:18:15;;;;;;;9.52;1.15;;;;;;;;;;5049249;28;20048;-72
2021/11/05 03:20:41;;;;;;;14.57;1.50;;;;;;;;;;5046852;28;20087;-72
2021/11/05 03:23:07;;;;;;;14.63;1.35;;;;;;;;;;5035525;28;20060;-72
2021/11/05 03:25:33;;;;;;;14.07;1.42;;;;;;;;;;5039523;28;20037;-72
2021/11/05 03:27:59;;;;;;;14.52;1.85;;;;;;;;;;5043234;28;20091;-72
2021/11/05 03:30:26;;;;;;;13.57;1.60;;;;;;;;;;5050109;28;20037;-72
2021/11/05 03:32:52;;;;;;;14.55;1.90;;;;;;;;;;5055072;28;20110;-72
2021/11/05 03:35:18;;;;;;;13.85;2.10;;;;;;;;;;5047962;28;20033;-72
2021/11/05 03:37:45;;;;;;;11.40;1.50;;;;;;;;;;5050442;28;20041;-72
2021/11/05 03:40:12;;;;;;;23.60;2.08;;;;;;;;;;5039602;28;20139;-72
2021/11/05 03:42:38;;;;;;;22.55;1.88;;;;;;;;;;5041609;28;20037;-72
2021/11/05 03:45:05;;;;;;;30.60;2.88;;;;;;;;;;5036456;28;20070;-72
2021/11/05 03:47:31;;;;;;;14.25;1.88;;;;;;;;;;5040949;28;20489;-72
2021/11/05 03:49:58;;;;;;;12.05;1.40;;;;;;;;;;5049447;28;20045;-72
2021/11/05 03:52:24;;;;;;;17.42;2.20;;;;;;;;;;5043467;28;20042;-72
2021/11/05 03:54:50;;;;;;;10.93;1.65;;;;;;;;;;5040237;28;20033;-72
2021/11/05 03:57:16;;;;;;;13.60;1.65;;;;;;;;;;5057836;28;20048;-72
2021/11/05 03:59:42;;;;;;;54.85;5.47;;;;;;;;;;5040288;28;20083;-72
2021/11/05 04:02:09;;;;;;;45.92;2.22;;;;;;;;;;5042963;28;20061;-72
2021/11/05 04:04:35;;;;;;;20.17;1.95;;;;;;;;;;5041474;28;20128;-72
2021/11/05 04:07:01;;;;;;;11.75;1.60;;;;;;;;;;5040822;28;20038;-72
2021/11/05 04:09:27;;;;;;;20.00;1.60;;;;;;;;;;5039490;28;20042;-72
2021/11/05 04:11:53;;;;;;;8.05;0.90;;;;;;;;;;5052918;28;20033;-72
2021/11/05 04:14:19;;;;;;;5.22;1.00;;;;;;;;;;5042684;28;20087;-72
2021/11/05 04:16:46;;;;;;;9.50;1.20;;;;;;;;;;5043686;28;20123;-72
2021/11/05 04:19:12;;;;;;;7.53;1.15;;;;;;;;;;5047938;28;20499;-72
2021/11/05 04:21:38;;;;;;;8.40;0.85;;;;;;;;;;5043299;28;20041;-72
2021/11/05 04:24:06;;;;;;;5.60;0.90;;;;;;;;;;5046638;28;20041;-72
2021/11/05 04:26:33;;;;;;;9.05;1.05;;;;;;;;;;5043263;28;20119;-72
2021/11/05 04:28:59;;;;;;;7.40;0.98;;;;;;;;;;5043931;28;20473;-72
2021/11/05 04:31:25;;;;;;;7.55;1.70;;;;;;;;;;5046637;28;20284;-72
2021/11/05 04:33:51;;;;;;;14.10;1.83;;;;;;;;;;5040870;28;20049;-72
2021/11/05 04:36:21;;;;;;;15.95;2.05;;;;;;;;;;5067284;28;20024;-72
2021/11/05 04:38:47;;;;;;;9.82;1.58;;;;;;;;;;5040906;28;20045;-72
2021/11/05 04:41:13;;;;;;;11.18;1.98;;;;;;;;;;5039533;28;20174;-72
2021/11/05 04:43:39;;;;;;;14.45;1.70;;;;;;;;;;5044949;28;20052;-72
2021/11/05 04:46:06;;;;;;;12.75;1.48;;;;;;;;;;5045220;28;20064;-72
2021/11/05 04:48:32;;;;;;;16.55;1.90;;;;;;;;;;5042934;28;20045;-72
2021/11/05 04:50:58;;;;;;;10.18;1.77;;;;;;;;;;5042180;28;20488;-72
2021/11/05 04:53:24;;;;;;;9.93;2.20;;;;;;;;;;5034260;28;20728;-72
2021/11/05 04:55:50;;;;;;;17.30;2.30;;;;;;;;;;5066858;28;20049;-72
2021/11/05 04:58:16;;;;;;;9.10;1.30;;;;;;;;;;5042179;28;20049;-72
2021/11/05 05:00:43;;;;;;;13.27;1.52;;;;;;;;;;5037130;28;20045;-72
2021/11/05 05:03:09;;;;;;;14.32;1.98;;;;;;;;;;5057096;28;20128;-72
2021/11/05 05:05:35;;;;;;;15.98;1.45;;;;;;;;;;5047435;28;20053;-72
2021/11/05 05:08:02;;;;;;;13.90;1.52;;;;;;;;;;5040101;28;20045;-72
2021/11/05 05:10:28;;;;;;;11.75;1.85;;;;;;;;;;5035473;28;20095;-72
2021/11/05 05:12:55;;;;;;;16.73;2.03;;;;;;;;;;5037668;28;20049;-72
2021/11/05 05:15:22;;;;;;;8.45;1.85;;;;;;;;;;5041386;28;20049;-72
2021/11/05 05:17:48;;;;;;;13.68;1.85;;;;;;;;;;5039613;28;20063;-72
2021/11/05 05:20:15;;;;;;;10.07;1.83;;;;;;;;;;5046876;28;20041;-72
2021/11/05 05:22:42;;;;;;;7.95;1.95;;;;;;;;;;5042331;28;20052;-72
2021/11/05 05:25:09;;;;;;;11.13;1.58;;;;;;;;;;5067504;28;20050;-72
2021/11/05 05:27:35;;;;;;;7.35;1.45;;;;;;;;;;5034567;28;20400;-72
2021/11/05 05:30:03;;;;;;;13.07;2.13;;;;;;;;;;5043240;28;20033;-72
2021/11/05 05:32:29;;;;;;;12.80;2.17;;;;;;;;;;5041666;28;20053;-72
2021/11/05 05:34:55;;;;;;;16.33;1.95;;;;;;;;;;5041851;28;20163;-72
2021/11/05 05:37:21;;;;;;;14.23;1.90;;;;;;;;;;5040222;28;20041;-72
2021/11/05 05:39:47;;;;;;;16.65;2.60;;;;;;;;;;5039994;28;20404;-72
2021/11/05 05:42:14;;;;;;;11.75;2.08;;;;;;;;;;5040880;28;21341;-72
2021/11/05 05:44:40;;;;;;;11.07;1.73;;;;;;;;;;5039593;28;20101;-72
2021/11/05 05:47:07;;;;;;;12.02;1.73;;;;;;;;;;5045102;28;20131;-72
2021/11/05 05:49:33;;;;;;;10.90;2.13;;;;;;;;;;5043985;28;20587;-72
2021/11/05 05:51:59;;;;;;;16.02;2.00;;;;;;;;;;5040738;28;20362;-72
2021/11/05 05:54:26;;;;;;;9.05;1.38;;;;;;;;;;5041560;28;20092;-73
2021/11/05 05:56:52;;;;;;;11.88;1.52;;;;;;;;;;5037332;28;20052;-73
2021/11/05 05:59:19;;;;;;;6.97;1.63;;;;;;;;;;5040620;28;20119;-73
2021/11/05 06:01:46;;;;;;;7.32;1.50;;;;;;;;;;5037511;28;20061;-73
2021/11/05 06:04:12;;;;;;;9.70;1.30;;;;;;;;;;5035650;28;20097;-72
2021/11/05 06:06:38;;;;;;;12.27;2.05;;;;;;;;;;5037452;28;20413;-72
2021/11/05 06:09:04;;;;;;;8.07;1.60;;;;;;;;;;5028154;28;20453;-72
2021/11/05 06:11:30;;;;;;;12.77;1.98;;;;;;;;;;5040391;28;20456;-74
2021/11/05 06:13:57;;;;;;;9.32;2.70;;;;;;;;;;5034482;28;20038;-72
2021/11/05 06:16:23;;;;;;;13.50;2.00;;;;;;;;;;5042801;28;20049;-73
2021/11/05 06:18:50;;;;;;;10.32;2.53;;;;;;;;;;5045235;28;20045;-72
2021/11/05 06:21:16;;;;;;;14.93;2.17;;;;;;;;;;5028184;28;20065;-72
2021/11/05 06:23:42;;;;;;;14.15;2.15;;;;;;;;;;5044768;28;20119;-72
2021/11/05 06:26:08;;;;;;;14.13;3.22;;;;;;;;;;5039912;28;20520;-73
2021/11/05 06:28:35;;;;;;;11.25;1.95;;;;;;;;;;5046971;28;20037;-73
2021/11/05 06:31:01;;;;;;;13.05;2.05;;;;;;;;;;5038701;28;20469;-73
2021/11/05 06:33:27;;;;;;;6.55;1.67;;;;;;;;;;5036075;28;20547;-73
2021/11/05 06:35:53;;;;;;;13.70;1.80;;;;;;;;;;5037216;28;20037;-73
2021/11/05 06:38:19;;;;;;;6.65;1.55;;;;;;;;;;5037448;28;20056;-72
2021/11/05 06:40:46;;;;;;;11.38;1.90;;;;;;;;;;5053878;28;20382;-72
2021/11/05 06:43:12;;;;;;;6.47;1.42;;;;;;;;;;5042933;28;20049;-73
2021/11/05 06:45:38;;;;;;;7.10;1.52;;;;;;;;;;5054493;28;20463;-73
2021/11/05 06:48:05;;;;;;;5.65;1.35;;;;;;;;;;5034437;28;20114;-72
2021/11/05 06:50:31;;;;;;;6.57;1.50;;;;;;;;;;5071674;28;20041;-72
2021/11/05 06:52:57;;;;;;;7.40;1.42;;;;;;;;;;5044042;28;20041;-73
2021/11/05 06:55:23;;;;;;;11.57;1.55;;;;;;;;;;5042147;28;20037;-73
2021/11/05 06:57:49;;;;;;;7.43;1.60;;;;;;;;;;5048706;28;20512;-73
2021/11/05 07:00:16;;;;;;;10.13;2.72;;;;;;;;;;5043756;28;20045;-72
2021/11/05 07:02:42;;;;;;;12.75;1.50;;;;;;;;;;5048371;28;20381;-73
2021/11/05 07:05:10;;;;;;;8.60;1.45;;;;;;;;;;5070155;28;20522;-73
2021/11/05 07:07:36;;;;;;;11.25;2.08;;;;;;;;;;5033937;28;20049;-73
2021/11/05 07:10:03;;;;;;;30.23;2.15;;;;;;;;;;5055423;28;20049;-73
2021/11/05 07:12:29;;;;;;;8.77;1.80;;;;;;;;;;5030573;28;20073;-73
2021/11/05 07:14:55;;;;;;;14.98;1.58;;;;;;;;;;5068696;28;20091;-73
2021/11/05 07:17:21;;;;;;;42.30;4.38;;;;;;;;;;5032123;28;20037;-73
2021/11/05 07:19:47;;;;;;;17.60;1.92;;;;;;;;;;5034890;28;20045;-73
2021/11/05 07:22:13;;;;;;;11.93;2.30;;;;;;;;;;5070475;28;20481;-73
2021/11/05 07:24:40;;;;;;;15.18;2.63;;;;;;;;;;5037655;28;20445;-73
2021/11/05 07:27:06;;;;;;;11.65;2.75;;;;;;;;;;5046005;28;20041;-73
2021/11/05 07:29:32;;;;;;;11.40;2.15;;;;;;;;;;5039764;28;20127;-73
2021/11/05 07:32:00;;;;;;;11.18;2.05;;;;;;;;;;5040668;28;20576;-73
2021/11/05 07:34:30;;;;;;;8.18;1.88;;;;;;;;;;5040896;28;20103;-74
2021/11/05 07:36:57;;;;;;;9.00;2.17;;;;;;;;;;5040914;28;20120;-80
2021/11/05 07:39:23;;;;;;;10.45;1.67;;;;;;;;;;5043749;28;20041;-76
2021/11/05 07:41:50;;;;;;;8.65;2.83;;;;;;;;;;5040485;28;20084;-85
2021/11/05 07:44:16;;;;;;;10.32;1.95;;;;;;;;;;5042406;28;20057;-83
2021/11/05 07:46:44;;;;;;;9.88;2.15;;;;;;;;;;5047289;28;20049;-87
2021/11/05 07:49:10;;;;;;;10.50;2.00;;;;;;;;;;5044565;28;20131;-80
2021/11/05 07:51:37;;;;;;;3.90;1.38;;;;;;;;;;5042767;28;20056;-74
2021/11/05 07:54:03;;;;;;;8.02;1.55;;;;;;;;;;5044769;28;20055;-74
2021/11/05 07:56:30;;;;;;;9.95;1.70;;;;;;;;;;5045895;28;20144;-71
2021/11/05 07:58:56;;;;;;;10.70;1.80;;;;;;;;;;5043451;28;20128;-74
2021/11/05 08:01:22;;;;;;;11.90;1.67;;;;;;;;;;5047224;28;20061;-74
2021/11/05 08:03:49;;;;;;;9.45;1.27;;;;;;;;;;5045003;28;20248;-74
2021/11/05 08:06:16;;;;;;;8.05;0.80;;;;;;;;;;5045595;28;20416;-74
2021/11/05 08:08:42;;;;;;;8.90;1.30;;;;;;;;;;5044317;28;20114;-74
2021/11/05 08:11:10;;;;;;;4.88;1.02;;;;;;;;;;5042155;28;20341;-74
2021/11/05 08:13:36;;;;;;;10.63;1.50;;;;;;;;;;5057052;28;20049;-74
2021/11/05 08:16:03;;;;;;;9.23;1.08;;;;;;;;;;5041510;28;20067;-74
2021/11/05 08:18:29;;;;;;;7.53;1.45;;;;;;;;;;5067666;28;20121;-74
2021/11/05 08:20:55;;;;;;;7.50;1.00;;;;;;;;;;5076269;28;20515;-74
2021/11/05 08:23:22;;;;;;;7.90;1.10;;;;;;;;;;5044132;28;20045;-73
2021/11/05 08:25:48;;;;;;;7.80;1.40;;;;;;;;;;5038454;28;20036;-73
2021/11/05 08:28:15;;;;;;;6.07;1.20;;;;;;;;;;5040842;28;20067;-73
2021/11/05 08:30:41;;;;;;;5.32;1.52;;;;;;;;;;5036203;28;20408;-74
2021/11/05 08:33:08;;;;;;;7.68;1.35;;;;;;;;;;5041152;28;20082;-74
2021/11/05 08:35:34;;;;;;;7.38;1.20;;;;;;;;;;5045659;28;20435;-74
2021/11/05 08:38:02;;;;;;;10.48;1.00;;;;;;;;;;5048863;28;20484;-74
2021/11/05 08:40:28;;;;;;;5.63;0.93;;;;;;;;;;5047099;28;20041;-74
2021/11/05 08:42:55;;;;;;;9.30;1.30;;;;;;;;;;5048392;28;20041;-74
2021/11/05 08:45:21;;;;;;;13.05;1.17;;;;;;;;;;5047290;28;20060;-74
2021/11/05 08:47:47;;;;;;;5.20;1.23;;;;;;;;;;5041770;28;20060;-74
2021/11/05 08:50:16;;;;;;;3.38;1.30;;;;;;;;;;5046894;28;20426;-74
2021/11/05 08:52:42;;;;;;;7.43;1.20;;;;;;;;;;5039204;28;20128;-74
2021/11/05 08:55:10;;;;;;;6.80;0.95;;;;;;;;;;5042063;28;20422;-74
2021/11/05 08:57:36;;;;;;;6.47;1.15;;;;;;;;;;5036686;28;20049;-74
2021/11/05 09:00:05;;;;;;;7.55;1.55;;;;;;;;;;5038922;28;20048;-74
2021/11/05 09:02:31;;;;;;;4.95;1.00;;;;;;;;;;5052742;28;20057;-74
2021/11/05 09:04:58;;;;;;;8.48;1.20;;;;;;;;;;5054660;28;20124;-74
2021/11/05 09:07:25;;;;;;;2.78;0.95;;;;;;;;;;5033943;28;20040;-74
2021/11/05 09:09:51;;;;;;;9.02;1.20;;;;;;;;;;5037806;28;20132;-74
2021/11/05 09:12:17;;;;;;;7.30;1.00;;;;;;;;;;5037980;28;20080;-74
2021/11/05 09:14:44;;;;;;;11.23;1.10;;;;;;;;;;5048620;28;20037;-74
2021/11/05 09:17:10;;;;;;;4.93;0.88;;;;;;;;;;5045730;28;20049;-75
2021/11/05 09:19:36;;;;;;;5.15;0.80;;;;;;;;;;5045530;28;20049;-75
2021/11/05 09:22:03;;;;;;;15.60;1.17;;;;;;;;;;5045548;28;20037;-76
2021/11/05 09:24:29;;;;;;;7.78;0.93;;;;;;;;;;5048164;28;20718;-75
2021/11/05 09:26:55;;;;;;;5.93;0.70;;;;;;;;;;5044607;28;20049;-75
2021/11/05 09:29:21;;;;;;;9.10;1.00;;;;;;;;;;5042881;28;20261;-76
2021/11/05 09:31:48;;;;;;;5.78;0.80;;;;;;;;;;5046150;28;20361;-75
2021/11/05 09:34:14;;;;;;;8.70;0.93;;;;;;;;;;5043993;28;20044;-75
2021/11/05 09:36:40;;;;;;;11.27;0.90;;;;;;;;;;5041810;28;20056;-75
2021/11/05 09:39:06;;;;;;;7.93;0.90;;;;;;;;;;5042860;28;20128;-75
2021/11/05 09:41:32;;;;;;;8.10;1.13;;;;;;;;;;5038617;28;20045;-75
2021/11/05 09:44:00;;;;;;;10.57;1.70;;;;;;;;;;5038288;28;20049;-75
2021/11/05 09:46:26;;;;;;;8.80;0.85;;;;;;;;;;5036760;28;20490;-74
2021/11/05 09:48:52;;;;;;;8.13;1.15;;;;;;;;;;5049953;28;20103;-76
2021/11/05 09:51:19;;;;;;;4.75;0.93;;;;;;;;;;5055782;28;20120;-75
2021/11/05 09:53:45;;;;;;;7.38;0.93;;;;;;;;;;5040902;28;20156;-75
2021/11/05 09:56:14;;;;;;;2.97;1.00;;;;;;;;;;5043987;28;20064;-75
2021/11/05 09:58:42;;;;;;;5.82;0.63;;;;;;;;;;5056839;28;20051;-75
2021/11/05 10:01:09;;;;;;;6.35;0.68;;;;;;;;;;5055152;28;20069;-76
2021/11/05 10:03:36;;;;;;;2.28;0.60;;;;;;;;;;5039155;28;20500;-76
2021/11/05 10:06:02;;;;;;;4.07;0.75;;;;;;;;;;5035966;28;20452;-75
2021/11/05 10:08:31;;;;;;;5.75;0.70;;;;;;;;;;5054478;28;20124;-75
2021/11/05 10:10:58;;;;;;;6.53;0.80;;;;;;;;;;5054046;28;20052;-75
2021/11/05 10:13:25;;;;;;;7.25;1.30;;;;;;;;;;5040509;28;20068;-75
2021/11/05 10:15:53;;;;;;;2.65;0.93;;;;;;;;;;5045287;28;20091;-75
2021/11/05 10:18:30;;;;;;;6.18;0.82;;;;;;;;;;5043089;28;20374;-75
2021/11/05 10:21:07;;;;;;;6.88;0.88;;;;;;;;;;5042909;28;20485;-75
2021/11/05 10:23:36;;;;;;;4.32;0.80;;;;;;;;;;5037822;28;20037;-76
2021/11/05 10:26:02;;;;;;;3.60;0.60;;;;;;;;;;5040753;28;20049;-76
2021/11/05 10:28:29;;;;;;;3.88;0.70;;;;;;;;;;5037310;28;20347;-76
2021/11/05 10:30:57;;;;;;;5.28;0.80;;;;;;;;;;5038546;28;20531;-75
2021/11/05 10:33:24;;;;;;;4.78;0.63;;;;;;;;;;5039059;28;20048;-75
2021/11/05 10:35:53;;;;;;;5.28;0.68;;;;;;;;;;5039673;28;20053;-76
2021/11/05 10:38:20;;;;;;;3.20;0.85;;;;;;;;;;5037103;28;20049;-76
2021/11/05 10:40:49;;;;;;;6.55;0.80;;;;;;;;;;5036065;28;20527;-75
2021/11/05 10:43:18;;;;;;;7.45;1.05;;;;;;;;;;5035719;28;20056;-76
2021/11/05 10:45:45;;;;;;;3.88;1.00;;;;;;;;;;5032113;28;20124;-76
2021/11/05 10:48:13;;;;;;;6.93;0.80;;;;;;;;;;5037690;28;20049;-76
2021/11/05 10:50:49;;;;;;;5.45;0.70;;;;;;;;;;5064896;28;20033;-76
2021/11/05 10:53:17;;;;;;;3.78;0.80;;;;;;;;;;5064207;28;20053;-76
2021/11/05 10:55:56;;;;;;;5.28;0.63;;;;;;;;;;5034064;28;20196;-75
2021/11/05 10:58:24;;;;;;;8.82;1.67;;;;;;;;;;5042568;28;20127;-76
2021/11/05 11:00:53;;;;;;;7.43;1.20;;;;;;;;;;5046141;28;20191;-74
2021/11/05 11:03:25;;;;;;;4.40;0.75;;;;;;;;;;5044111;28;20563;-76
2021/11/05 11:05:52;;;;;;;13.82;1.30;;;;;;;;;;5045070;28;20045;-76
2021/11/05 11:08:20;;;;;;;10.23;1.33;;;;;;;;;;5044347;28;20132;-76
2021/11/05 11:10:49;;;;;;;12.32;2.80;;;;;;;;;;5049334;28;20041;-76
2021/11/05 11:13:28;;;;;;;13.98;1.45;;;;;;;;;;5046938;28;20461;-76
2021/11/05 11:15:55;;;;;;;6.43;1.15;;;;;;;;;;5031944;28;20469;-75
2021/11/05 11:18:21;;;;;;;12.65;2.03;;;;;;;;;;5044667;28;20044;-70
2021/11/05 11:20:47;;;;;;;8.80;1.30;;;;;;;;;;5042965;28;20403;-68
2021/11/05 11:23:14;;;;;;;6.82;1.30;;;;;;;;;;5039276;28;20094;-71
2021/11/05 11:25:40;;;;;;;8.25;1.25;;;;;;;;;;5037137;28;20060;-71
2021/11/05 11:28:06;;;;;;;5.30;0.90;;;;;;;;;;5046297;28;20107;-70
2021/11/05 11:30:32;;;;;;;6.85;1.25;;;;;;;;;;5048769;28;20041;-71
2021/11/05 11:32:59;;;;;;;8.93;1.67;;;;;;;;;;5032205;28;20041;-71
2021/11/05 11:35:26;;;;;;;9.70;1.42;;;;;;;;;;5046487;28;20041;-69
2021/11/05 11:37:52;;;;;;;5.88;1.00;;;;;;;;;;5045041;28;20059;-71
2021/11/05 11:40:18;;;;;;;12.68;1.60;;;;;;;;;;5031582;28;20488;-71
2021/11/05 11:42:45;;;;;;;12.57;2.35;;;;;;;;;;5046911;28;20203;-71
2021/11/05 11:45:12;;;;;;;6.05;0.77;;;;;;;;;;5045730;28;20050;-71
2021/11/05 11:47:47;;;;;;;13.02;1.85;;;;;;;;;;5043251;28;20041;-71
2021/11/05 11:50:21;;;;;;;9.65;1.67;;;;;;;;;;5042036;28;20041;-71
2021/11/05 11:52:55;;;;;;;9.57;2.50;;;;;;;;;;5044326;28;20068;-70
2021/11/05 11:55:22;;;;;;;11.93;1.67;;;;;;;;;;5028993;28;20052;-71
2021/11/05 11:57:48;;;;;;;12.68;1.75;;;;;;;;;;5046134;28;20091;-69
2021/11/05 12:00:16;;;;;;;12.18;1.50;;;;;;;;;;5045202;28;20045;-69
2021/11/05 12:02:44;;;;;;;12.05;1.20;;;;;;;;;;5044095;28;20111;-71
2021/11/05 12:05:24;;;;;;;10.57;1.50;;;;;;;;;;5043166;28;20041;-70
2021/11/05 12:08:09;;;;;;;11.18;1.45;;;;;;;;;;5045661;28;21136;-71
2021/11/05 12:10:35;;;;;;;15.75;1.85;;;;;;;;;;5067554;28;20052;-71
2021/11/05 12:13:01;;;;;;;9.77;1.25;;;;;;;;;;5043969;28;20055;-71
2021/11/05 12:15:27;;;;;;;10.40;1.35;;;;;;;;;;5043736;28;20037;-70
2021/11/05 12:17:54;;;;;;;9.65;1.45;;;;;;;;;;5040095;28;20045;-70
2021/11/05 12:20:29;;;;;;;7.93;1.40;;;;;;;;;;5056261;28;20049;-69
2021/11/05 12:23:16;;;;;;;17.27;1.40;;;;;;;;;;5071671;28;20076;-70
2021/11/05 12:25:48;;;;;;;9.07;1.35;;;;;;;;;;5041671;28;20122;-70
2021/11/05 12:28:19;;;;;;;6.35;1.23;;;;;;;;;;5042688;28;20107;-71
2021/11/05 12:30:47;;;;;;;7.82;1.10;;;;;;;;;;5043780;28;20069;-69
2021/11/05 12:33:25;;;;;;;11.45;1.40;;;;;;;;;;5043028;28;20051;-69
2021/11/05 12:35:52;;;;;;;6.28;1.00;;;;;;;;;;5039544;28;20133;-70
2021/11/05 12:38:19;;;;;;;11.32;1.75;;;;;;;;;;5040453;28;20054;-70
2021/11/05 12:40:54;;;;;;;7.97;0.75;;;;;;;;;;5040200;28;20068;-69
2021/11/05 12:43:22;;;;;;;6.47;1.08;;;;;;;;;;5028502;28;20385;-70
2021/11/05 12:45:52;;;;;;;11.35;1.08;;;;;;;;;;5042475;28;20049;-71
2021/11/05 12:48:40;;;;;;;5.43;1.00;;;;;;;;;;5038909;28;20463;-71
2021/11/05 12:51:07;;;;;;;6.50;1.08;;;;;;;;;;5021581;28;20047;-71
2021/11/05 12:53:33;;;;;;;7.05;1.00;;;;;;;;;;5033787;28;20135;-71
2021/11/05 12:56:00;;;;;;;9.43;1.13;;;;;;;;;;5036467;28;20056;-69
2021/11/05 12:58:28;;;;;;;7.63;1.10;;;;;;;;;;5032971;28;20076;-71
2021/11/05 13:00:55;;;;;;;13.43;1.58;;;;;;;;;;5035082;28;20481;-69
2021/11/05 13:03:21;;;;;;;8.05;1.42;;;;;;;;;;5061506;28;20543;-68
2021/11/05 13:05:53;;;;;;;7.15;1.38;;;;;;;;;;5033546;28;20127;-68
2021/11/05 13:08:21;;;;;;;8.82;1.20;;;;;;;;;;5037940;28;20144;-69
2021/11/05 13:10:48;;;;;;;4.10;0.85;;;;;;;;;;5040217;28;20452;-68
2021/11/05 13:13:14;;;;;;;9.75;1.23;;;;;;;;;;5018132;28;20045;-68
2021/11/05 13:15:41;;;;;;;5.80;1.15;;;;;;;;;;5042970;28;20033;-68
2021/11/05 13:18:09;;;;;;;6.00;0.80;;;;;;;;;;5055100;28;20049;-69
2021/11/05 13:20:39;;;;;;;9.95;1.70;;;;;;;;;;5036115;28;20060;-69
2021/11/05 13:23:06;;;;;;;11.90;1.60;;;;;;;;;;5047883;28;20052;-68
2021/11/05 13:25:35;;;;;;;9.95;1.20;;;;;;;;;;5044569;28;20496;-69
2021/11/05 13:28:04;;;;;;;10.25;1.25;;;;;;;;;;5047538;28;20051;-68
2021/11/05 13:30:33;;;;;;;6.78;1.17;;;;;;;;;;5046871;28;20166;-69
2021/11/05 13:33:00;;;;;;;8.68;0.85;;;;;;;;;;5048697;28;20487;-72
2021/11/05 13:35:26;;;;;;;12.35;1.10;;;;;;;;;;5072598;28;20047;-67
2021/11/05 13:38:01;;;;;;;7.03;0.90;;;;;;;;;;5049136;28;20102;-67
2021/11/05 13:40:27;;;;;;;10.45;0.90;;;;;;;;;;5040624;28;20107;-67
2021/11/05 13:42:53;;;;;;;4.53;0.80;;;;;;;;;;5039937;28;20046;-67
2021/11/05 13:45:20;;;;;;;8.45;0.90;;;;;;;;;;5046595;28;20049;-67
2021/11/05 13:47:49;;;;;;;8.23;1.02;;;;;;;;;;5043545;28;21446;-67
2021/11/05 13:50:17;;;;;;;6.57;1.40;;;;;;;;;;5042945;28;20084;-67
2021/11/05 13:52:52;;;;;;;4.70;0.80;;;;;;;;;;5043474;28;20037;-67
2021/11/05 13:55:26;;;;;;;11.27;1.05;;;;;;;;;;5033572;28;20481;-67
2021/11/05 13:57:52;;;;;;;5.82;0.70;;;;;;;;;;5042845;28;20041;-68
2021/11/05 14:00:18;;;;;;;5.18;0.80;;;;;;;;;;5043598;28;20033;-67
2021/11/05 14:02:46;;;;;;;3.83;0.70;;;;;;;;;;5042315;28;20053;-67
2021/11/05 14:05:12;;;;;;;2.35;0.40;;;;;;;;;;5043400;28;20076;-67
2021/11/05 14:07:39;;;;;;;6.95;1.05;;;;;;;;;;5043562;28;20059;-69
2021/11/05 14:10:07;;;;;;;4.55;0.70;;;;;;;;;;5042729;28;20128;-69
2021/11/05 14:12:33;;;;;;;9.13;1.27;;;;;;;;;;5040003;28;20048;-68
2021/11/05 14:15:00;;;;;;;9.88;2.03;;;;;;;;;;5041549;28;20394;-68
2021/11/05 14:17:26;;;;;;;7.75;1.38;;;;;;;;;;5039980;28;20044;-68
2021/11/05 14:19:59;;;;;;;11.13;1.42;;;;;;;;;;5044433;28;20049;-68
2021/11/05 14:22:34;;;;;;;7.55;0.90;;;;;;;;;;5045813;28;20052;-68
2021/11/05 14:25:10;;;;;;;7.68;1.05;;;;;;;;;;5030683;28;20406;-68
2021/11/05 14:27:36;;;;;;;11.25;1.08;;;;;;;;;;5038600;28;20037;-68
2021/11/05 14:30:04;;;;;;;4.75;1.08;;;;;;;;;;5055759;28;20429;-67
2021/11/05 14:32:35;;;;;;;7.43;1.00;;;;;;;;;;5042559;28;20042;-68
2021/11/05 14:35:05;;;;;;;7.07;1.02;;;;;;;;;;5044529;28;20551;-69